sensor_id;sensor_type;location;lat;lon;timestamp;pressure;altitude;pressure_sealevel;temperature;humidity
46876;BME280;32866;50.160;14.768;2024-02-26T00:00:12;98140.78;;;-1.88;100.00
46876;BME280;32866;50.160;14.768;2024-02-26T00:02:38;98144.97;;;-1.69;100.00
46876;BME280;32866;50.160;14.768;2024-02-26T00:05:06;98136.91;;;-1.61;100.00
46876;BME280;32866;50.160;14.768;2024-02-26T00:07:32;98137.66;;;-1.46;100.00
46876;BME280;32866;50.160;14.768;2024-02-26T00:09:58;98082.06;;;-1.85;100.00
46876;BME280;32866;50.160;14.768;2024-02-26T00:12:24;98139.22;;;-1.63;100.00
46876;BME280;32866;50.160;14.768;2024-02-26T00:14:50;98097.75;;;-1.66;100.00
46876;BME280;32866;50.160;14.768;2024-02-26T00:17:18;98123.06;;;-1.53;100.00
46876;BME280;32866;50.160;14.768;2024-02-26T00:19:44;98122.31;;;-1.53;100.00
46876;BME280;32866;50.160;14.768;2024-02-26T00:22:10;98119.22;;;-1.52;100.00
46876;BME280;32866;50.160;14.768;2024-02-26T00:24:36;98057.16;;;-2.11;100.00
46876;BME280;32866;50.160;14.768;2024-02-26T00:27:02;98090.13;;;-2.07;100.00
46876;BME280;32866;50.160;14.768;2024-02-26T00:29:28;98118.50;;;-1.92;100.00
46876;BME280;32866;50.160;14.768;2024-02-26T00:31:54;98094.34;;;-2.20;100.00
46876;BME280;32866;50.160;14.768;2024-02-26T00:34:20;98123.13;;;-1.96;100.00
46876;BME280;32866;50.160;14.768;2024-02-26T00:36:46;98054.84;;;-2.45;100.00
46876;BME280;32866;50.160;14.768;2024-02-26T00:39:12;98068.28;;;-2.49;100.00
46876;BME280;32866;50.160;14.768;2024-02-26T00:41:41;98111.22;;;-2.16;100.00
46876;BME280;32866;50.160;14.768;2024-02-26T00:44:07;98109.69;;;-2.10;100.00
46876;BME280;32866;50.160;14.768;2024-02-26T00:46:33;98107.78;;;-2.17;100.00
46876;BME280;32866;50.160;14.768;2024-02-26T00:48:59;98111.97;;;-2.27;100.00
46876;BME280;32866;50.160;14.768;2024-02-26T00:51:26;98044.09;;;-2.70;100.00
46876;BME280;32866;50.160;14.768;2024-02-26T00:53:52;98106.63;;;-2.41;100.00
46876;BME280;32866;50.160;14.768;2024-02-26T00:56:18;98105.06;;;-2.35;100.00
46876;BME280;32866;50.160;14.768;2024-02-26T00:58:44;98101.63;;;-2.46;100.00
46876;BME280;32866;50.160;14.768;2024-02-26T01:01:10;98106.97;;;-2.53;100.00
46876;BME280;32866;50.160;14.768;2024-02-26T01:03:36;98037.50;;;-3.05;100.00
46876;BME280;32866;50.160;14.768;2024-02-26T01:06:02;98054.78;;;-2.92;100.00
46876;BME280;32866;50.160;14.768;2024-02-26T01:08:28;98077.47;;;-2.39;100.00
46876;BME280;32866;50.160;14.768;2024-02-26T01:10:54;98074.41;;;-2.27;100.00
46876;BME280;32866;50.160;14.768;2024-02-26T01:13:20;98103.16;;;-2.20;100.00
46876;BME280;32866;50.160;14.768;2024-02-26T01:15:46;98104.69;;;-2.30;100.00
46876;BME280;32866;50.160;14.768;2024-02-26T01:18:12;98090.91;;;-2.39;100.00
46876;BME280;32866;50.160;14.768;2024-02-26T01:20:38;98051.75;;;-2.76;100.00
46876;BME280;32866;50.160;14.768;2024-02-26T01:23:03;98088.19;;;-2.53;100.00
46876;BME280;32866;50.160;14.768;2024-02-26T01:25:29;98082.44;;;-2.66;100.00
46876;BME280;32866;50.160;14.768;2024-02-26T01:27:55;98019.53;;;-3.05;100.00
46876;BME280;32866;50.160;14.768;2024-02-26T01:30:21;98080.91;;;-2.64;100.00
46876;BME280;32866;50.160;14.768;2024-02-26T01:32:47;98080.50;;;-2.66;100.00
46876;BME280;32866;50.160;14.768;2024-02-26T01:35:13;98084.75;;;-2.65;100.00
46876;BME280;32866;50.160;14.768;2024-02-26T01:37:38;98088.56;;;-2.58;100.00
46876;BME280;32866;50.160;14.768;2024-02-26T01:40:05;98083.94;;;-2.65;100.00
46876;BME280;32866;50.160;14.768;2024-02-26T01:42:31;98077.41;;;-2.75;100.00
46876;BME280;32866;50.160;14.768;2024-02-26T01:44:58;98010.69;;;-3.23;100.00
46876;BME280;32866;50.160;14.768;2024-02-26T01:47:26;98078.16;;;-2.89;100.00
46876;BME280;32866;50.160;14.768;2024-02-26T01:49:52;98072.03;;;-2.96;100.00
46876;BME280;32866;50.160;14.768;2024-02-26T01:52:19;98061.69;;;-2.91;100.00
46876;BME280;32866;50.160;14.768;2024-02-26T01:54:45;98036.38;;;-3.08;100.00
46876;BME280;32866;50.160;14.768;2024-02-26T01:57:12;98026.03;;;-3.06;100.00
46876;BME280;32866;50.160;14.768;2024-02-26T01:59:40;98038.31;;;-2.97;100.00
46876;BME280;32866;50.160;14.768;2024-02-26T02:02:08;98041.41;;;-2.74;100.00
46876;BME280;32866;50.160;14.768;2024-02-26T02:04:36;98046.78;;;-2.67;100.00
46876;BME280;32866;50.160;14.768;2024-02-26T02:07:03;98052.91;;;-2.77;100.00
46876;BME280;32866;50.160;14.768;2024-02-26T02:09:29;98051.34;;;-2.82;100.00
46876;BME280;32866;50.160;14.768;2024-02-26T02:11:56;98042.16;;;-2.84;100.00
46876;BME280;32866;50.160;14.768;2024-02-26T02:14:22;98047.16;;;-2.86;100.00
46876;BME280;32866;50.160;14.768;2024-02-26T02:16:48;98051.72;;;-2.90;100.00
46876;BME280;32866;50.160;14.768;2024-02-26T02:19:14;98057.44;;;-2.99;100.00
46876;BME280;32866;50.160;14.768;2024-02-26T02:21:40;98055.19;;;-2.83;100.00
46876;BME280;32866;50.160;14.768;2024-02-26T02:24:06;98060.56;;;-2.79;100.00
46876;BME280;32866;50.160;14.768;2024-02-26T02:26:32;98046.41;;;-2.80;100.00
46876;BME280;32866;50.160;14.768;2024-02-26T02:28:58;98045.97;;;-2.85;100.00
46876;BME280;32866;50.160;14.768;2024-02-26T02:31:24;98053.28;;;-2.89;100.00
46876;BME280;32866;50.160;14.768;2024-02-26T02:33:50;97986.53;;;-3.34;100.00
46876;BME280;32866;50.160;14.768;2024-02-26T02:36:16;98041.38;;;-2.95;100.00
46876;BME280;32866;50.160;14.768;2024-02-26T02:38:49;98046.34;;;-3.01;100.00
46876;BME280;32866;50.160;14.768;2024-02-26T02:41:18;98007.97;;;-3.30;100.00
46876;BME280;32866;50.160;14.768;2024-02-26T02:43:44;98045.59;;;-2.84;100.00
46876;BME280;32866;50.160;14.768;2024-02-26T02:46:10;98031.78;;;-3.04;100.00
46876;BME280;32866;50.160;14.768;2024-02-26T02:48:41;98046.41;;;-2.80;100.00
46876;BME280;32866;50.160;14.768;2024-02-26T02:51:07;98038.72;;;-2.81;100.00
46876;BME280;32866;50.160;14.768;2024-02-26T02:53:33;98046.03;;;-2.78;100.00
46876;BME280;32866;50.160;14.768;2024-02-26T02:55:58;98031.06;;;-2.86;100.00
46876;BME280;32866;50.160;14.768;2024-02-26T02:58:24;98032.59;;;-2.64;100.00
46876;BME280;32866;50.160;14.768;2024-02-26T03:00:50;98029.56;;;-2.66;100.00
46876;BME280;32866;50.160;14.768;2024-02-26T03:03:16;98035.28;;;-2.71;100.00
46876;BME280;32866;50.160;14.768;2024-02-26T03:05:42;97990.38;;;-3.21;100.00
46876;BME280;32866;50.160;14.768;2024-02-26T03:08:08;98034.88;;;-2.80;100.00
46876;BME280;32866;50.160;14.768;2024-02-26T03:10:35;98014.19;;;-3.05;100.00
46876;BME280;32866;50.160;14.768;2024-02-26T03:13:00;98045.59;;;-2.84;100.00
46876;BME280;32866;50.160;14.768;2024-02-26T03:15:26;98044.44;;;-2.97;100.00
46876;BME280;32866;50.160;14.768;2024-02-26T03:17:52;98044.03;;;-3.06;100.00
46876;BME280;32866;50.160;14.768;2024-02-26T03:20:18;98045.59;;;-3.02;100.00
46876;BME280;32866;50.160;14.768;2024-02-26T03:22:45;98047.84;;;-3.11;100.00
46876;BME280;32866;50.160;14.768;2024-02-26T03:25:11;98036.69;;;-3.20;100.00
46876;BME280;32866;50.160;14.768;2024-02-26T03:27:36;98034.75;;;-3.27;100.00
46876;BME280;32866;50.160;14.768;2024-02-26T03:30:03;98037.06;;;-3.29;100.00
46876;BME280;32866;50.160;14.768;2024-02-26T03:32:29;98010.16;;;-3.61;100.00
46876;BME280;32866;50.160;14.768;2024-02-26T03:34:55;98037.84;;;-3.28;100.00
46876;BME280;32866;50.160;14.768;2024-02-26T03:37:21;98049.34;;;-3.24;100.00
46876;BME280;32866;50.160;14.768;2024-02-26T03:39:47;98007.88;;;-3.52;100.00
46876;BME280;32866;50.160;14.768;2024-02-26T03:42:13;98046.28;;;-3.23;100.00
46876;BME280;32866;50.160;14.768;2024-02-26T03:44:39;98043.59;;;-3.26;100.00
46876;BME280;32866;50.160;14.768;2024-02-26T03:47:05;97964.91;;;-3.81;100.00
46876;BME280;32866;50.160;14.768;2024-02-26T03:49:31;98038.19;;;-3.33;100.00
46876;BME280;32866;50.160;14.768;2024-02-26T03:51:57;98041.63;;;-3.37;100.00
46876;BME280;32866;50.160;14.768;2024-02-26T03:54:23;98034.00;;;-3.34;100.00
46876;BME280;32866;50.160;14.768;2024-02-26T03:56:48;98047.78;;;-3.32;100.00
46876;BME280;32866;50.160;14.768;2024-02-26T03:59:14;98003.22;;;-3.69;100.00
46876;BME280;32866;50.160;14.768;2024-02-26T04:01:45;98040.16;;;-3.23;100.00
46876;BME280;32866;50.160;14.768;2024-02-26T04:04:13;97991.03;;;-3.63;100.00
46876;BME280;32866;50.160;14.768;2024-02-26T04:06:38;98050.94;;;-3.02;100.00
46876;BME280;32866;50.160;14.768;2024-02-26T04:09:04;98052.47;;;-3.01;100.00
46876;BME280;32866;50.160;14.768;2024-02-26T04:11:30;97971.94;;;-3.47;100.00
46876;BME280;32866;50.160;14.768;2024-02-26T04:13:56;98046.72;;;-2.95;100.00
46876;BME280;32866;50.160;14.768;2024-02-26T04:16:22;98049.47;;;-2.81;100.00
46876;BME280;32866;50.160;14.768;2024-02-26T04:18:48;98041.41;;;-2.74;100.00
46876;BME280;32866;50.160;14.768;2024-02-26T04:21:14;98041.38;;;-2.92;100.00
46876;BME280;32866;50.160;14.768;2024-02-26T04:23:40;98018.75;;;-3.09;100.00
46876;BME280;32866;50.160;14.768;2024-02-26T04:26:06;98049.78;;;-2.93;100.00
46876;BME280;32866;50.160;14.768;2024-02-26T04:28:32;98045.53;;;-3.09;100.00
46876;BME280;32866;50.160;14.768;2024-02-26T04:30:58;98042.47;;;-3.11;100.00
46876;BME280;32866;50.160;14.768;2024-02-26T04:33:24;98040.94;;;-3.12;100.00
46876;BME280;32866;50.160;14.768;2024-02-26T04:35:50;98036.00;;;-3.10;100.00
46876;BME280;32866;50.160;14.768;2024-02-26T04:38:16;98019.41;;;-3.41;100.00
46876;BME280;32866;50.160;14.768;2024-02-26T04:40:42;98053.97;;;-3.14;100.00
46876;BME280;32866;50.160;14.768;2024-02-26T04:43:08;98038.22;;;-3.26;100.00
46876;BME280;32866;50.160;14.768;2024-02-26T04:45:34;98010.19;;;-3.54;100.00
46876;BME280;32866;50.160;14.768;2024-02-26T04:48:00;98059.75;;;-3.05;100.00
46876;BME280;32866;50.160;14.768;2024-02-26T04:50:26;98064.75;;;-2.82;100.00
46876;BME280;32866;50.160;14.768;2024-02-26T04:52:51;98066.28;;;-2.91;100.00
46876;BME280;32866;50.160;14.768;2024-02-26T04:55:17;98005.72;;;-3.18;100.00
46876;BME280;32866;50.160;14.768;2024-02-26T04:57:43;98007.63;;;-3.18;100.00
46876;BME280;32866;50.160;14.768;2024-02-26T05:00:10;98062.47;;;-2.83;100.00
46876;BME280;32866;50.160;14.768;2024-02-26T05:02:36;98062.06;;;-2.82;100.00
46876;BME280;32866;50.160;14.768;2024-02-26T05:05:07;98028.66;;;-3.24;100.00
46876;BME280;32866;50.160;14.768;2024-02-26T05:07:39;98064.34;;;-2.98;100.00
46876;BME280;32866;50.160;14.768;2024-02-26T05:10:06;98056.31;;;-3.02;100.00
46876;BME280;32866;50.160;14.768;2024-02-26T05:12:32;98063.56;;;-3.06;100.00
46876;BME280;32866;50.160;14.768;2024-02-26T05:15:00;97996.78;;;-3.54;100.00
46876;BME280;32866;50.160;14.768;2024-02-26T05:17:26;98059.75;;;-3.08;100.00
46876;BME280;32866;50.160;14.768;2024-02-26T05:19:52;98059.75;;;-3.05;100.00
46876;BME280;32866;50.160;14.768;2024-02-26T05:22:18;98058.56;;;-3.11;100.00
46876;BME280;32866;50.160;14.768;2024-02-26T05:24:44;98068.47;;;-3.22;100.00
46876;BME280;32866;50.160;14.768;2024-02-26T05:27:10;98031.19;;;-3.60;100.00
46876;BME280;32866;50.160;14.768;2024-02-26T05:29:38;98065.69;;;-3.51;100.00
46876;BME280;32866;50.160;14.768;2024-02-26T05:32:04;98071.41;;;-3.56;100.00
46876;BME280;32866;50.160;14.768;2024-02-26T05:34:30;98065.28;;;-3.57;100.00
46876;BME280;32866;50.160;14.768;2024-02-26T05:36:56;98071.38;;;-3.63;100.00
46876;BME280;32866;50.160;14.768;2024-02-26T05:39:22;98068.28;;;-3.65;100.00
46876;BME280;32866;50.160;14.768;2024-02-26T05:41:48;98060.22;;;-3.65;100.00
46876;BME280;32866;50.160;14.768;2024-02-26T05:44:15;98081.34;;;-3.60;100.00
46876;BME280;32866;50.160;14.768;2024-02-26T05:46:41;98081.28;;;-3.64;100.00
46876;BME280;32866;50.160;14.768;2024-02-26T05:49:08;98081.34;;;-3.60;100.00
46876;BME280;32866;50.160;14.768;2024-02-26T05:51:34;98086.63;;;-3.67;100.00
46876;BME280;32866;50.160;14.768;2024-02-26T05:54:00;98076.75;;;-3.56;100.00
46876;BME280;32866;50.160;14.768;2024-02-26T05:56:26;98089.78;;;-3.51;100.00
46876;BME280;32866;50.160;14.768;2024-02-26T05:58:52;98035.28;;;-3.84;100.00
46876;BME280;32866;50.160;14.768;2024-02-26T06:01:20;98090.25;;;-3.34;100.00
46876;BME280;32866;50.160;14.768;2024-02-26T06:03:45;98097.56;;;-3.24;100.00
46876;BME280;32866;50.160;14.768;2024-02-26T06:06:12;98096.84;;;-3.18;100.00
46876;BME280;32866;50.160;14.768;2024-02-26T06:08:38;98102.22;;;-3.07;100.00
46876;BME280;32866;50.160;14.768;2024-02-26T06:11:05;98107.66;;;-2.92;100.00
46876;BME280;32866;50.160;14.768;2024-02-26T06:13:30;98110.75;;;-2.80;100.00
46876;BME280;32866;50.160;14.768;2024-02-26T06:15:56;98110.03;;;-2.62;100.00
46876;BME280;32866;50.160;14.768;2024-02-26T06:18:22;98100.44;;;-2.67;100.00
46876;BME280;32866;50.160;14.768;2024-02-26T06:20:48;98109.69;;;-2.46;100.00
46876;BME280;32866;50.160;14.768;2024-02-26T06:23:15;98108.53;;;-2.34;100.00
46876;BME280;32866;50.160;14.768;2024-02-26T06:25:41;98120.41;;;-2.25;100.00
46876;BME280;32866;50.160;14.768;2024-02-26T06:28:08;98108.91;;;-2.18;100.00
46876;BME280;32866;50.160;14.768;2024-02-26T06:30:34;98058.28;;;-2.48;100.00
46876;BME280;32866;50.160;14.768;2024-02-26T06:33:00;98063.28;;;-2.54;100.00
46876;BME280;32866;50.160;14.768;2024-02-26T06:35:26;98136.16;;;-2.09;100.00
46876;BME280;32866;50.160;14.768;2024-02-26T06:37:52;98126.19;;;-2.12;100.00
46876;BME280;32866;50.160;14.768;2024-02-26T06:40:19;98137.31;;;-1.99;100.00
46876;BME280;32866;50.160;14.768;2024-02-26T06:42:45;98077.84;;;-2.30;100.00
46876;BME280;32866;50.160;14.768;2024-02-26T06:45:11;98081.31;;;-2.18;100.00
46876;BME280;32866;50.160;14.768;2024-02-26T06:47:37;98141.53;;;-1.69;100.00
46876;BME280;32866;50.160;14.768;2024-02-26T06:50:03;98144.94;;;-1.58;100.00
46876;BME280;32866;50.160;14.768;2024-02-26T06:52:28;98139.94;;;-1.41;100.00
46876;BME280;32866;50.160;14.768;2024-02-26T06:54:54;98114.66;;;-1.69;100.00
46876;BME280;32866;50.160;14.768;2024-02-26T06:57:20;98143.75;;;-1.28;100.00
46876;BME280;32866;50.160;14.768;2024-02-26T06:59:46;98149.03;;;-0.99;100.00
46876;BME280;32866;50.160;14.768;2024-02-26T07:02:13;98155.84;;;-0.69;100.00
46876;BME280;32866;50.160;14.768;2024-02-26T07:04:39;98156.56;;;-0.62;100.00
46876;BME280;32866;50.160;14.768;2024-02-26T07:07:06;98143.34;;;-0.34;100.00
46876;BME280;32866;50.160;14.768;2024-02-26T07:09:32;98152.22;;;-0.41;100.00
46876;BME280;32866;50.160;14.768;2024-02-26T07:11:58;98136.59;;;-0.68;100.00
46876;BME280;32866;50.160;14.768;2024-02-26T07:14:24;98155.09;;;-0.81;100.00
46876;BME280;32866;50.160;14.768;2024-02-26T07:16:50;98146.75;;;-0.97;100.00
46876;BME280;32866;50.160;14.768;2024-02-26T07:19:16;98153.00;;;-0.41;100.00
46876;BME280;32866;50.160;14.768;2024-02-26T07:21:42;98158.81;;;0.52;100.00
46876;BME280;32866;50.160;14.768;2024-02-26T07:24:08;98145.69;;;0.96;100.00
46876;BME280;32866;50.160;14.768;2024-02-26T07:26:34;98147.81;;;0.73;100.00
46876;BME280;32866;50.160;14.768;2024-02-26T07:29:00;98151.41;;;0.63;100.00
46876;BME280;32866;50.160;14.768;2024-02-26T07:31:26;98151.13;;;0.54;100.00
46876;BME280;32866;50.160;14.768;2024-02-26T07:33:52;98140.19;;;0.30;100.00
46876;BME280;32866;50.160;14.768;2024-02-26T07:36:18;98154.38;;;0.34;100.00
46876;BME280;32866;50.160;14.768;2024-02-26T07:38:44;98109.00;;;-0.20;100.00
46876;BME280;32866;50.160;14.768;2024-02-26T07:41:11;98147.78;;;0.39;100.00
46876;BME280;32866;50.160;14.768;2024-02-26T07:43:37;98098.31;;;0.18;100.00
46876;BME280;32866;50.160;14.768;2024-02-26T07:46:03;98097.94;;;0.92;100.00
46876;BME280;32866;50.160;14.768;2024-02-26T07:48:29;98127.91;;;3.55;100.00
46876;BME280;32866;50.160;14.768;2024-02-26T07:50:55;98138.94;;;4.75;100.00
46876;BME280;32866;50.160;14.768;2024-02-26T07:53:21;98120.50;;;3.39;100.00
46876;BME280;32866;50.160;14.768;2024-02-26T07:55:47;98134.78;;;2.39;100.00
46876;BME280;32866;50.160;14.768;2024-02-26T07:58:13;98169.78;;;2.22;100.00
46876;BME280;32866;50.160;14.768;2024-02-26T08:00:39;98170.53;;;2.27;100.00
46876;BME280;32866;50.160;14.768;2024-02-26T08:03:05;98175.16;;;2.26;100.00
46876;BME280;32866;50.160;14.768;2024-02-26T08:05:31;98180.13;;;2.04;100.00
46876;BME280;32866;50.160;14.768;2024-02-26T08:07:57;98130.91;;;1.38;100.00
46876;BME280;32866;50.160;14.768;2024-02-26T08:10:23;98186.22;;;1.84;100.00
46876;BME280;32866;50.160;14.768;2024-02-26T08:12:49;98196.56;;;1.90;100.00
46876;BME280;32866;50.160;14.768;2024-02-26T08:15:15;98181.34;;;1.99;100.00
46876;BME280;32866;50.160;14.768;2024-02-26T08:17:41;98117.47;;;1.85;100.00
46876;BME280;32866;50.160;14.768;2024-02-26T08:20:07;98144.75;;;1.95;100.00
46876;BME280;32866;50.160;14.768;2024-02-26T08:22:34;98179.78;;;2.49;100.00
46876;BME280;32866;50.160;14.768;2024-02-26T08:25:00;98185.63;;;2.48;100.00
46876;BME280;32866;50.160;14.768;2024-02-26T08:27:28;98184.25;;;2.59;100.00
46876;BME280;32866;50.160;14.768;2024-02-26T08:29:54;98193.22;;;2.56;100.00
46876;BME280;32866;50.160;14.768;2024-02-26T08:32:20;98187.69;;;2.64;100.00
46876;BME280;32866;50.160;14.768;2024-02-26T08:34:46;98174.88;;;2.88;100.00
46876;BME280;32866;50.160;14.768;2024-02-26T08:37:12;98188.00;;;3.09;100.00
46876;BME280;32866;50.160;14.768;2024-02-26T08:39:38;98189.53;;;3.30;100.00
46876;BME280;32866;50.160;14.768;2024-02-26T08:42:05;98123.44;;;3.08;100.00
46876;BME280;32866;50.160;14.768;2024-02-26T08:44:31;98155.22;;;3.44;100.00
46876;BME280;32866;50.160;14.768;2024-02-26T08:46:57;98184.94;;;4.00;100.00
46876;BME280;32866;50.160;14.768;2024-02-26T08:49:24;98189.53;;;4.03;100.00
46876;BME280;32866;50.160;14.768;2024-02-26T08:51:50;98123.00;;;3.99;100.00
46876;BME280;32866;50.160;14.768;2024-02-26T08:54:16;98175.09;;;4.56;100.00
46876;BME280;32866;50.160;14.768;2024-02-26T08:56:42;98171.31;;;4.53;100.00
46876;BME280;32866;50.160;14.768;2024-02-26T08:59:08;98185.25;;;4.85;100.00
46876;BME280;32866;50.160;14.768;2024-02-26T09:01:34;98167.50;;;5.09;100.00
46876;BME280;32866;50.160;14.768;2024-02-26T09:04:00;98170.47;;;5.28;100.00
46876;BME280;32866;50.160;14.768;2024-02-26T09:06:27;98154.72;;;5.23;100.00
46876;BME280;32866;50.160;14.768;2024-02-26T09:08:53;98122.81;;;5.52;100.00
46876;BME280;32866;50.160;14.768;2024-02-26T09:11:19;98160.38;;;6.09;100.00
46876;BME280;32866;50.160;14.768;2024-02-26T09:13:45;98140.94;;;6.32;100.00
46876;BME280;32866;50.160;14.768;2024-02-26T09:16:11;98136.94;;;6.72;100.00
46876;BME280;32866;50.160;14.768;2024-02-26T09:18:38;98162.75;;;6.90;100.00
46876;BME280;32866;50.160;14.768;2024-02-26T09:21:04;98131.09;;;7.05;100.00
46876;BME280;32866;50.160;14.768;2024-02-26T09:23:31;98123.44;;;7.13;100.00
46876;BME280;32866;50.160;14.768;2024-02-26T09:26:00;98156.88;;;8.07;100.00
46876;BME280;32866;50.160;14.768;2024-02-26T09:28:26;98141.31;;;8.26;100.00
46876;BME280;32866;50.160;14.768;2024-02-26T09:30:52;98167.78;;;8.76;100.00
46876;BME280;32866;50.160;14.768;2024-02-26T09:33:18;98130.28;;;8.58;100.00
46876;BME280;32866;50.160;14.768;2024-02-26T09:35:44;98170.13;;;9.90;100.00
46876;BME280;32866;50.160;14.768;2024-02-26T09:38:10;98149.06;;;9.29;100.00
46876;BME280;32866;50.160;14.768;2024-02-26T09:40:36;98175.94;;;9.40;100.00
46876;BME280;32866;50.160;14.768;2024-02-26T09:43:04;98182.81;;;8.80;100.00
46876;BME280;32866;50.160;14.768;2024-02-26T09:45:32;98183.94;;;7.92;100.00
46876;BME280;32866;50.160;14.768;2024-02-26T09:47:58;98190.53;;;6.97;100.00
46876;BME280;32866;50.160;14.768;2024-02-26T09:50:24;98188.31;;;6.35;100.00
46876;BME280;32866;50.160;14.768;2024-02-26T09:52:51;98187.16;;;6.58;100.00
46876;BME280;32866;50.160;14.768;2024-02-26T09:55:18;98189.69;;;6.87;100.00
46876;BME280;32866;50.160;14.768;2024-02-26T09:57:46;98189.81;;;6.36;100.00
46876;BME280;32866;50.160;14.768;2024-02-26T10:00:19;98174.16;;;5.76;100.00
46876;BME280;32866;50.160;14.768;2024-02-26T10:02:46;98195.78;;;6.44;100.00
46876;BME280;32866;50.160;14.768;2024-02-26T10:05:17;98186.22;;;6.39;100.00
46876;BME280;32866;50.160;14.768;2024-02-26T10:07:45;98192.88;;;6.25;100.00
46876;BME280;32866;50.160;14.768;2024-02-26T10:10:13;98199.91;;;6.48;100.00
46876;BME280;32866;50.160;14.768;2024-02-26T10:12:39;98151.09;;;6.19;100.00
46876;BME280;32866;50.160;14.768;2024-02-26T10:15:06;98185.22;;;6.46;100.00
46876;BME280;32866;50.160;14.768;2024-02-26T10:17:32;98188.56;;;6.50;100.00
46876;BME280;32866;50.160;14.768;2024-02-26T10:20:11;98193.41;;;6.81;100.00
46876;BME280;32866;50.160;14.768;2024-02-26T10:22:37;98198.75;;;7.06;100.00
46876;BME280;32866;50.160;14.768;2024-02-26T10:25:04;98193.94;;;7.11;100.00
46876;BME280;32866;50.160;14.768;2024-02-26T10:27:31;98202.56;;;7.09;100.00
46876;BME280;32866;50.160;14.768;2024-02-26T10:29:57;98175.94;;;6.91;100.00
46876;BME280;32866;50.160;14.768;2024-02-26T10:32:24;98172.84;;;7.02;100.00
46876;BME280;32866;50.160;14.768;2024-02-26T10:34:55;98148.09;;;7.09;100.00
46876;BME280;32866;50.160;14.768;2024-02-26T10:37:22;98172.53;;;7.44;100.00
46876;BME280;32866;50.160;14.768;2024-02-26T10:39:48;98199.47;;;8.05;100.00
46876;BME280;32866;50.160;14.768;2024-02-26T10:42:14;98200.47;;;8.39;100.00
46876;BME280;32866;50.160;14.768;2024-02-26T10:44:41;98183.69;;;8.49;100.00
46876;BME280;32866;50.160;14.768;2024-02-26T10:47:08;98200.44;;;8.88;100.00
46876;BME280;32866;50.160;14.768;2024-02-26T10:49:35;98167.34;;;8.77;100.00
46876;BME280;32866;50.160;14.768;2024-02-26T10:52:01;98198.91;;;8.97;100.00
46876;BME280;32866;50.160;14.768;2024-02-26T10:54:29;98182.81;;;8.80;100.00
46876;BME280;32866;50.160;14.768;2024-02-26T10:57:01;98154.88;;;8.58;100.00
46876;BME280;32866;50.160;14.768;2024-02-26T10:59:28;98158.22;;;8.62;100.00
46876;BME280;32866;50.160;14.768;2024-02-26T11:01:55;98189.63;;;8.57;100.00
46876;BME280;32866;50.160;14.768;2024-02-26T11:04:23;98164.88;;;8.61;100.00
46876;BME280;32866;50.160;14.768;2024-02-26T11:06:51;98188.84;;;9.21;100.00
46876;BME280;32866;50.160;14.768;2024-02-26T11:09:19;98199.72;;;9.68;100.00
46876;BME280;32866;50.160;14.768;2024-02-26T11:11:45;98172.16;;;9.28;100.00
46876;BME280;32866;50.160;14.768;2024-02-26T11:14:12;98144.69;;;9.14;100.00
46876;BME280;32866;50.160;14.768;2024-02-26T11:16:39;98198.34;;;9.63;100.00
46876;BME280;32866;50.160;14.768;2024-02-26T11:19:06;98203.09;;;9.53;100.00
46876;BME280;32866;50.160;14.768;2024-02-26T11:21:35;98201.72;;;9.58;100.00
46876;BME280;32866;50.160;14.768;2024-02-26T11:24:12;98218.69;;;9.71;100.00
46876;BME280;32866;50.160;14.768;2024-02-26T11:26:43;98184.34;;;9.70;100.00
46876;BME280;32866;50.160;14.768;2024-02-26T11:29:16;98145.13;;;9.73;100.00
46876;BME280;32866;50.160;14.768;2024-02-26T11:31:44;98176.13;;;10.13;100.00
46876;BME280;32866;50.160;14.768;2024-02-26T11:34:10;98193.31;;;10.47;100.00
46876;BME280;32866;50.160;14.768;2024-02-26T11:36:42;98176.00;;;10.40;100.00
46876;BME280;32866;50.160;14.768;2024-02-26T11:39:11;98161.72;;;10.03;100.00
46876;BME280;32866;50.160;14.768;2024-02-26T11:41:38;98195.88;;;10.17;100.00
46876;BME280;32866;50.160;14.768;2024-02-26T11:44:04;98171.28;;;10.08;100.00
46876;BME280;32866;50.160;14.768;2024-02-26T11:46:34;98184.72;;;10.30;100.00
46876;BME280;32866;50.160;14.768;2024-02-26T11:51:57;98190.28;;;10.45;100.00
46876;BME280;32866;50.160;14.768;2024-02-26T11:57:30;98193.19;;;10.08;100.00
46876;BME280;32866;50.160;14.768;2024-02-26T12:00:10;98198.44;;;9.87;100.00
46876;BME280;32866;50.160;14.768;2024-02-26T12:05:23;98190.81;;;9.49;100.00
46876;BME280;32866;50.160;14.768;2024-02-26T12:07:53;98192.03;;;9.29;100.00
46876;BME280;32866;50.160;14.768;2024-02-26T12:10:26;98185.50;;;9.26;100.00
46876;BME280;32866;50.160;14.768;2024-02-26T12:12:58;98176.59;;;8.98;100.00
46876;BME280;32866;50.160;14.768;2024-02-26T12:15:24;98142.13;;;8.64;100.00
46876;BME280;32866;50.160;14.768;2024-02-26T12:17:52;98186.44;;;8.86;100.00
46876;BME280;32866;50.160;14.768;2024-02-26T12:20:19;98126.06;;;8.57;100.00
46876;BME280;32866;50.160;14.768;2024-02-26T12:22:45;98182.78;;;9.08;100.00
46876;BME280;32866;50.160;14.768;2024-02-26T12:25:14;98158.22;;;8.71;100.00
46876;BME280;32866;50.160;14.768;2024-02-26T12:27:39;98150.34;;;8.91;100.00
46876;BME280;32866;50.160;14.768;2024-02-26T12:30:06;98149.88;;;9.02;100.00
46876;BME280;32866;50.160;14.768;2024-02-26T12:32:32;98160.63;;;9.24;100.00
46876;BME280;32866;50.160;14.768;2024-02-26T12:34:59;98190.94;;;9.45;100.00
46876;BME280;32866;50.160;14.768;2024-02-26T12:37:27;98188.53;;;9.47;100.00
46876;BME280;32866;50.160;14.768;2024-02-26T12:39:54;98176.41;;;9.11;100.00
46876;BME280;32866;50.160;14.768;2024-02-26T12:42:20;98167.47;;;9.10;100.00
46876;BME280;32866;50.160;14.768;2024-02-26T12:44:46;98179.75;;;9.34;100.00
46876;BME280;32866;50.160;14.768;2024-02-26T12:47:12;98178.66;;;9.40;100.00